Weather reports worldwide

Advertisment
Paganella, Italy (16022): temperature & dewpoint: 20.05.2019 20:00:00 - 26.05.2019 20:00:00 (CEST)Paganella, Italy (16022): wind speed: 20.05.2019 20:00:00 - 26.05.2019 20:00:00 (CEST)Paganella, Italy (16022): wind direction: 20.05.2019 20:00:00 - 26.05.2019 20:00:00 (CEST)Paganella, Italy (16022): visibility: 20.05.2019 20:00:00 - 26.05.2019 20:00:00 (CEST)Paganella, Italy (16022): sunshine duration: 20.05.2019 20:00:00 - 26.05.2019 20:00:00 (CEST)
Date & Time tt [°C] td [°C] ff [km/h] ff [kn] dd vv [km] sd [min]
26.05.2019 20:00:00 7,8 3,3 0 0 N 30 12
26.05.2019 19:00:00 8,0 2,5 0 0 N 30 42
26.05.2019 18:00:00 8,1 4,1 5 3 N 30 0
26.05.2019 17:00:00 8,2 1,4 8 4 N 30 30
26.05.2019 16:00:00 8,8 3,4 8 4 SSE 40 24
26.05.2019 15:00:00 9,0 2,3 5 3 S 30 36
26.05.2019 14:00:00 9,0 3,2 8 4 N 30 30
26.05.2019 13:00:00 8,3 3,0 5 3 SSE 25 42
26.05.2019 12:00:00 7,0 3,8 0 0 N 30 0
26.05.2019 11:00:00 6,0 3,5 0 0 N 10 0
26.05.2019 10:00:00 4,6 3,0 0 0 N 25 0
26.05.2019 09:00:00 3,8 3,4 0 0 N 0,9 0
26.05.2019 08:00:00 3,0 3,0 0 0 N - 0
26.05.2019 07:00:00 3,0 3,0 0 0 N - 0
26.05.2019 06:00:00 3,1 3,1 0 0 N - 0
26.05.2019 05:00:00 3,4 3,1 0 0 N 0,1 -
26.05.2019 04:00:00 3,9 2,4 0 0 N 3,0 -
26.05.2019 03:00:00 4,0 2,5 0 0 N 3,0 -
26.05.2019 02:00:00 3,8 3,1 0 0 N 3,0 -
26.05.2019 01:00:00 3,8 2,6 9 5 WSW 4,0 -
26.05.2019 00:00:00 4,0 3,4 8 4 SSW 0,6 -
25.05.2019 23:00:00 4,0 3,3 11 6 SW 0,6 -
25.05.2019 22:00:00 4,4 3,1 9 5 SW 0,6 -
25.05.2019 21:00:00 5,0 3,5 11 6 WSW 0,9 0
25.05.2019 20:00:00 5,8 3,6 9 5 SW 0,9 0
25.05.2019 19:00:00 7,1 3,9 5 3 SW 25 0
25.05.2019 18:00:00 6,8 4,0 5 3 SSW 25 0
25.05.2019 17:00:00 6,9 4,4 5 3 SSW 10 0
25.05.2019 16:00:00 7,1 3,7 0 0 N 0,9 0
25.05.2019 15:00:00 7,0 3,3 0 0 N 0,9 0
25.05.2019 14:00:00 6,8 2,9 0 0 N 0,9 0
25.05.2019 13:00:00 5,8 2,3 4 2 S 0,9 0
25.05.2019 12:00:00 9,2 6,8 0 0 N 0,9 0
25.05.2019 11:00:00 9,0 9,0 8 4 S - 0
25.05.2019 10:00:00 5,8 4,3 13 7 S - 0
25.05.2019 09:00:00 4,4 3,7 9 5 N 20 0
25.05.2019 08:00:00 4,9 4,9 11 6 NNW - 0
25.05.2019 07:00:00 5,2 4,3 0 0 N 1,5 0
25.05.2019 06:00:00 5,8 4,1 0 0 N 2,0 0
25.05.2019 05:00:00 6,0 3,8 0 0 N 10 -
25.05.2019 04:00:00 6,0 2,6 8 4 SW 12 -
25.05.2019 03:00:00 6,0 1,9 5 3 SSW 15 -
25.05.2019 02:00:00 6,0 0,8 9 5 SSW 20 -
25.05.2019 01:00:00 6,0 1,4 9 5 SSW 20 -
25.05.2019 00:00:00 5,9 2,9 9 5 SW 20 -
24.05.2019 23:00:00 6,1 1,1 9 5 SSW 20 -
24.05.2019 22:00:00 6,2 0,5 13 7 SSW 20 -
24.05.2019 21:00:00 6,6 1,5 26 14 SSW 25 0
24.05.2019 20:00:00 7,8 2,7 11 6 SW 25 12
24.05.2019 19:00:00 8,5 2,9 11 6 SW 25 6
24.05.2019 18:00:00 10,2 0,5 8 4 SW 30 48
24.05.2019 17:00:00 10,6 1,2 9 5 WSW 25 60
24.05.2019 16:00:00 10,4 1,5 8 4 WSW 30 60
24.05.2019 15:00:00 9,9 4,5 5 3 N 25 60
24.05.2019 14:00:00 9,3 3,5 0 0 N 25 30
24.05.2019 13:00:00 9,0 4,6 9 5 N 20 48
24.05.2019 12:00:00 8,0 4,4 0 0 N 0,9 48
24.05.2019 11:00:00 7,0 4,3 0 0 N 10 12
24.05.2019 10:00:00 6,8 3,8 9 5 SW 0,9 6
24.05.2019 09:00:00 6,6 3,4 8 4 WSW 0,9 0
24.05.2019 08:00:00 6,8 4,5 0 0 N 0,9 18
24.05.2019 07:00:00 5,6 4,3 0 0 N 0,9 0
24.05.2019 06:00:00 4,9 4,2 9 5 N 0,9 -
24.05.2019 05:00:00 5,0 4,4 9 5 N 0,9 -
24.05.2019 04:00:00 5,0 4,3 9 5 N - -
24.05.2019 03:00:00 5,8 5,1 11 6 N 0,1 -
24.05.2019 02:00:00 5,8 5,1 11 6 NNE 0,3 -
24.05.2019 01:00:00 6,0 4,5 0 0 N 30 -
24.05.2019 00:00:00 6,2 4,4 0 0 N 35 -
23.05.2019 23:00:00 6,8 3,6 11 6 S 40 -
23.05.2019 22:00:00 7,6 3,3 11 6 S 40 -
23.05.2019 21:00:00 9,0 0,9 11 6 S 60 6
23.05.2019 20:00:00 10,0 2,6 11 6 S 60 60
23.05.2019 19:00:00 10,0 2,6 11 6 WSW 70 60
23.05.2019 18:00:00 9,4 1,8 11 6 SSW 70 60
23.05.2019 17:00:00 8,6 1,1 5 3 N 70 -
23.05.2019 16:00:00 9,0 0,7 11 6 WSW 70 48
23.05.2019 15:00:00 8,6 0,1 13 7 SSW 70 60
23.05.2019 14:00:00 8,0 -1,0 11 6 SSE 70 60
23.05.2019 13:00:00 7,0 -1,4 5 3 SW 70 60
23.05.2019 12:00:00 6,2 -2,2 5 3 N 60 60
23.05.2019 11:00:00 5,8 -1,8 13 7 N 60 60
23.05.2019 10:00:00 4,5 -4,5 13 7 N 60 60
23.05.2019 09:00:00 4,0 -4,2 13 7 N 60 60
23.05.2019 08:00:00 3,9 -4,3 13 7 N 60 60
23.05.2019 07:00:00 2,8 -3,1 18 10 N 50 54
23.05.2019 06:00:00 2,5 -3,4 13 7 N 50 0
23.05.2019 05:00:00 3,0 -2,5 28 15 N 50 -
23.05.2019 04:00:00 3,0 -2,9 28 15 N 50 -
23.05.2019 03:00:00 3,0 -2,7 29 16 N 50 -
23.05.2019 02:00:00 2,4 -4,1 28 15 N 50 -
23.05.2019 01:00:00 3,0 -2,7 18 10 N 30 -
23.05.2019 00:00:00 3,4 3,3 16 9 N 10 -
22.05.2019 23:00:00 4,0 2,5 15 8 N 50 -
22.05.2019 22:00:00 4,8 2,5 13 7 N 40 -
22.05.2019 21:00:00 5,2 1,1 13 7 N 50 0
22.05.2019 20:00:00 6,0 -0,1 9 5 N 50 0
22.05.2019 19:00:00 6,5 -0,3 18 10 N 50 0
22.05.2019 18:00:00 6,2 -0,5 5 3 N 50 0
22.05.2019 17:00:00 6,6 -0,4 5 3 N 30 0
22.05.2019 16:00:00 6,8 -0,4 8 4 N 50 0
22.05.2019 15:00:00 7,2 0,4 5 3 N 60 18
22.05.2019 14:00:00 7,0 0,2 5 3 SSW 60 24
22.05.2019 13:00:00 6,2 -1,7 0 0 N 60 18
22.05.2019 12:00:00 5,0 -2,1 18 10 N 50 0
22.05.2019 11:00:00 4,2 -2,4 18 10 N 50 0
22.05.2019 10:00:00 4,0 -2,4 21 11 N 60 0
22.05.2019 09:00:00 4,0 -1,8 18 10 N 60 12
22.05.2019 08:00:00 3,0 -0,6 21 11 N 50 0
22.05.2019 07:00:00 2,2 0,7 11 6 N 0,9 0
22.05.2019 06:00:00 2,8 2,8 8 4 N - 0
22.05.2019 05:00:00 3,0 2,6 5 3 N - -
22.05.2019 04:00:00 3,0 3,0 4 2 N 0,1 -
22.05.2019 03:00:00 3,8 2,6 0 0 N - -
22.05.2019 02:00:00 3,8 2,3 5 3 NNE - -
22.05.2019 01:00:00 4,0 3,4 11 6 S - -
22.05.2019 00:00:00 4,2 3,0 5 3 S - -
21.05.2019 23:00:00 4,2 3,3 8 4 SSW - -
21.05.2019 22:00:00 4,2 3,9 9 5 SSW - -
21.05.2019 21:00:00 4,4 3,7 13 7 SSW - 0
21.05.2019 20:00:00 4,8 4,8 9 5 SSW - 0
21.05.2019 19:00:00 5,0 4,3 15 8 SSW - 0
21.05.2019 18:00:00 6,8 5,0 18 10 S 0,3 0
21.05.2019 17:00:00 8,0 4,0 4 2 SSW 10 0
21.05.2019 16:00:00 8,2 0,7 0 0 N 40 6
21.05.2019 15:00:00 8,0 -0,2 0 0 N 45 0
21.05.2019 14:00:00 7,0 -1,9 4 2 N 60 0
21.05.2019 13:00:00 7,0 2,9 5 3 N 60 0
21.05.2019 12:00:00 6,6 1,3 4 2 SSW 60 0
21.05.2019 11:00:00 5,8 -2,1 5 3 SW 50 0
21.05.2019 10:00:00 5,8 -1,6 0 0 N 30 0
21.05.2019 09:00:00 5,0 -2,6 4 2 SW 30 0
21.05.2019 08:00:00 4,3 -2,8 4 2 N 30 0
21.05.2019 07:00:00 4,0 -2,0 4 2 N 20 0
21.05.2019 06:00:00 3,2 -0,8 4 2 N 20 0
21.05.2019 05:00:00 2,0 1,7 0 0 N - -
21.05.2019 04:00:00 2,0 2,0 4 2 SSW - -
21.05.2019 03:00:00 2,0 2,0 11 6 SSW - -
21.05.2019 02:00:00 2,0 2,0 11 6 SSW - -
21.05.2019 01:00:00 2,1 2,0 4 2 SSW - -
21.05.2019 00:00:00 2,2 1,9 8 4 SSW - -
20.05.2019 23:00:00 2,4 2,1 4 2 SSW - -
20.05.2019 22:00:00 2,4 2,0 5 3 SSW - -
20.05.2019 21:00:00 2,6 1,9 8 4 SSW - 0
20.05.2019 20:00:00 2,4 1,4 4 2 SSW - 0

tt = temperature
td = dewpoint
ff = wind speed
dd = wind direction
vv = visibility
sd = sunshine duration

Next stations